sensor_id;sensor_type;location;lat;lon;timestamp;temperature;humidity
3055;DHT22;1537;52.018;8.542;2023-03-12T00:00:53;1.00;96.40
3055;DHT22;1537;52.018;8.542;2023-03-12T00:04:16;1.10;96.40
3055;DHT22;1537;52.018;8.542;2023-03-12T00:07:40;1.10;96.40
3055;DHT22;1537;52.018;8.542;2023-03-12T00:11:07;1.10;96.50
3055;DHT22;1537;52.018;8.542;2023-03-12T00:14:31;1.10;96.60
3055;DHT22;1537;52.018;8.542;2023-03-12T00:17:56;1.10;96.50
3055;DHT22;1537;52.018;8.542;2023-03-12T00:21:20;1.10;96.60
3055;DHT22;1537;52.018;8.542;2023-03-12T00:24:44;1.10;96.60
3055;DHT22;1537;52.018;8.542;2023-03-12T00:28:07;1.00;96.80
3055;DHT22;1537;52.018;8.542;2023-03-12T00:31:32;1.00;96.90
3055;DHT22;1537;52.018;8.542;2023-03-12T00:34:57;0.90;97.00
3055;DHT22;1537;52.018;8.542;2023-03-12T00:38:21;0.90;97.10
3055;DHT22;1537;52.018;8.542;2023-03-12T00:41:44;0.90;97.20
3055;DHT22;1537;52.018;8.542;2023-03-12T00:45:08;0.80;97.30
3055;DHT22;1537;52.018;8.542;2023-03-12T00:48:32;0.80;97.40
3055;DHT22;1537;52.018;8.542;2023-03-12T00:51:57;0.80;97.40
3055;DHT22;1537;52.018;8.542;2023-03-12T00:55:21;0.70;97.50
3055;DHT22;1537;52.018;8.542;2023-03-12T00:58:44;0.70;97.60
3055;DHT22;1537;52.018;8.542;2023-03-12T01:02:08;0.70;97.70
3055;DHT22;1537;52.018;8.542;2023-03-12T01:05:33;0.70;97.80
3055;DHT22;1537;52.018;8.542;2023-03-12T01:09:01;0.70;97.80
3055;DHT22;1537;52.018;8.542;2023-03-12T01:12:26;0.70;97.70
3055;DHT22;1537;52.018;8.542;2023-03-12T01:15:50;0.70;97.70
3055;DHT22;1537;52.018;8.542;2023-03-12T01:19:13;0.70;97.70
3055;DHT22;1537;52.018;8.542;2023-03-12T01:22:37;0.70;97.60
3055;DHT22;1537;52.018;8.542;2023-03-12T01:26:02;0.70;97.60
3055;DHT22;1537;52.018;8.542;2023-03-12T01:29:26;0.80;97.70
3055;DHT22;1537;52.018;8.542;2023-03-12T01:32:51;0.80;97.60
3055;DHT22;1537;52.018;8.542;2023-03-12T01:36:17;0.80;97.50
3055;DHT22;1537;52.018;8.542;2023-03-12T01:39:41;0.80;97.40
3055;DHT22;1537;52.018;8.542;2023-03-12T01:43:24;0.80;97.50
3055;DHT22;1537;52.018;8.542;2023-03-12T01:46:50;0.80;97.40
3055;DHT22;1537;52.018;8.542;2023-03-12T01:50:19;0.90;97.40
3055;DHT22;1537;52.018;8.542;2023-03-12T01:53:45;0.80;97.30
3055;DHT22;1537;52.018;8.542;2023-03-12T01:57:12;0.80;97.30
3055;DHT22;1537;52.018;8.542;2023-03-12T02:00:39;0.70;97.30
3055;DHT22;1537;52.018;8.542;2023-03-12T02:04:03;0.70;97.40
3055;DHT22;1537;52.018;8.542;2023-03-12T02:07:28;0.80;97.50
3055;DHT22;1537;52.018;8.542;2023-03-12T02:10:51;0.80;97.50
3055;DHT22;1537;52.018;8.542;2023-03-12T02:14:15;0.80;97.50
3055;DHT22;1537;52.018;8.542;2023-03-12T02:17:41;0.80;97.50
3055;DHT22;1537;52.018;8.542;2023-03-12T02:21:12;0.80;97.40
3055;DHT22;1537;52.018;8.542;2023-03-12T02:24:41;0.80;97.40
3055;DHT22;1537;52.018;8.542;2023-03-12T02:28:09;0.90;97.30
3055;DHT22;1537;52.018;8.542;2023-03-12T02:31:39;0.80;97.10
3055;DHT22;1537;52.018;8.542;2023-03-12T02:35:05;0.90;96.90
3055;DHT22;1537;52.018;8.542;2023-03-12T02:38:36;0.90;96.70
3055;DHT22;1537;52.018;8.542;2023-03-12T02:42:00;0.90;96.60
3055;DHT22;1537;52.018;8.542;2023-03-12T02:45:25;1.00;96.60
3055;DHT22;1537;52.018;8.542;2023-03-12T02:48:51;1.00;96.60
3055;DHT22;1537;52.018;8.542;2023-03-12T02:52:16;1.00;96.70
3055;DHT22;1537;52.018;8.542;2023-03-12T02:55:39;1.00;96.60
3055;DHT22;1537;52.018;8.542;2023-03-12T02:59:03;1.00;96.70
3055;DHT22;1537;52.018;8.542;2023-03-12T03:02:33;1.00;96.70
3055;DHT22;1537;52.018;8.542;2023-03-12T03:05:57;0.90;96.60
3055;DHT22;1537;52.018;8.542;2023-03-12T03:09:20;0.90;96.90
3055;DHT22;1537;52.018;8.542;2023-03-12T03:12:44;0.90;97.00
3055;DHT22;1537;52.018;8.542;2023-03-12T03:16:08;0.80;97.00
3055;DHT22;1537;52.018;8.542;2023-03-12T03:19:35;0.80;97.30
3055;DHT22;1537;52.018;8.542;2023-03-12T03:22:59;0.80;97.30
3055;DHT22;1537;52.018;8.542;2023-03-12T03:26:23;0.70;97.40
3055;DHT22;1537;52.018;8.542;2023-03-12T03:29:47;0.70;97.50
3055;DHT22;1537;52.018;8.542;2023-03-12T03:33:14;0.80;97.70
3055;DHT22;1537;52.018;8.542;2023-03-12T03:36:39;0.80;97.60
3055;DHT22;1537;52.018;8.542;2023-03-12T03:40:08;0.80;97.50
3055;DHT22;1537;52.018;8.542;2023-03-12T03:43:34;0.90;97.20
3055;DHT22;1537;52.018;8.542;2023-03-12T03:46:57;0.90;96.90
3055;DHT22;1537;52.018;8.542;2023-03-12T03:50:21;1.00;95.70
3055;DHT22;1537;52.018;8.542;2023-03-12T03:53:46;1.00;95.50
3055;DHT22;1537;52.018;8.542;2023-03-12T03:57:10;1.10;95.20
3055;DHT22;1537;52.018;8.542;2023-03-12T04:00:34;1.10;94.50
3055;DHT22;1537;52.018;8.542;2023-03-12T04:03:59;1.20;94.50
3055;DHT22;1537;52.018;8.542;2023-03-12T04:07:25;1.20;94.00
3055;DHT22;1537;52.018;8.542;2023-03-12T04:10:53;1.20;94.00
3055;DHT22;1537;52.018;8.542;2023-03-12T04:14:17;1.20;94.20
3055;DHT22;1537;52.018;8.542;2023-03-12T04:17:40;1.10;94.20
3055;DHT22;1537;52.018;8.542;2023-03-12T04:21:06;1.10;94.40
3055;DHT22;1537;52.018;8.542;2023-03-12T04:24:30;1.20;94.20
3055;DHT22;1537;52.018;8.542;2023-03-12T04:27:56;1.20;93.30
3055;DHT22;1537;52.018;8.542;2023-03-12T04:31:19;1.20;93.60
3055;DHT22;1537;52.018;8.542;2023-03-12T04:34:45;1.30;93.80
3055;DHT22;1537;52.018;8.542;2023-03-12T04:38:11;1.30;92.90
3055;DHT22;1537;52.018;8.542;2023-03-12T04:41:35;1.40;92.20
3055;DHT22;1537;52.018;8.542;2023-03-12T04:45:06;1.40;91.90
3055;DHT22;1537;52.018;8.542;2023-03-12T04:48:34;1.50;91.30
3055;DHT22;1537;52.018;8.542;2023-03-12T04:51:58;1.50;90.90
3055;DHT22;1537;52.018;8.542;2023-03-12T04:55:22;1.60;90.70
3055;DHT22;1537;52.018;8.542;2023-03-12T04:58:46;1.60;90.60
3055;DHT22;1537;52.018;8.542;2023-03-12T05:02:11;1.60;90.20
3055;DHT22;1537;52.018;8.542;2023-03-12T05:05:36;1.60;90.30
3055;DHT22;1537;52.018;8.542;2023-03-12T05:09:00;1.60;90.00
3055;DHT22;1537;52.018;8.542;2023-03-12T05:12:25;1.70;90.30
3055;DHT22;1537;52.018;8.542;2023-03-12T05:15:50;1.70;90.00
3055;DHT22;1537;52.018;8.542;2023-03-12T05:19:17;1.70;89.30
3055;DHT22;1537;52.018;8.542;2023-03-12T05:22:40;1.80;89.50
3055;DHT22;1537;52.018;8.542;2023-03-12T05:26:04;1.80;90.00
3055;DHT22;1537;52.018;8.542;2023-03-12T05:29:29;1.80;89.60
3055;DHT22;1537;52.018;8.542;2023-03-12T05:32:57;1.80;88.50
3055;DHT22;1537;52.018;8.542;2023-03-12T05:36:22;1.80;89.10
3055;DHT22;1537;52.018;8.542;2023-03-12T05:39:46;1.80;89.30
3055;DHT22;1537;52.018;8.542;2023-03-12T05:43:11;1.80;89.90
3055;DHT22;1537;52.018;8.542;2023-03-12T05:46:35;1.80;89.60
3055;DHT22;1537;52.018;8.542;2023-03-12T05:49:59;1.80;89.90
3055;DHT22;1537;52.018;8.542;2023-03-12T05:53:25;1.80;89.10
3055;DHT22;1537;52.018;8.542;2023-03-12T05:56:49;1.80;89.10
3055;DHT22;1537;52.018;8.542;2023-03-12T06:00:15;1.90;89.10
3055;DHT22;1537;52.018;8.542;2023-03-12T06:03:47;1.90;88.90
3055;DHT22;1537;52.018;8.542;2023-03-12T06:07:11;1.90;89.10
3055;DHT22;1537;52.018;8.542;2023-03-12T06:10:38;1.90;89.10
3055;DHT22;1537;52.018;8.542;2023-03-12T06:14:02;1.80;89.40
3055;DHT22;1537;52.018;8.542;2023-03-12T06:17:28;1.80;89.60
3055;DHT22;1537;52.018;8.542;2023-03-12T06:20:51;1.90;88.90
3055;DHT22;1537;52.018;8.542;2023-03-12T06:24:16;1.90;89.60
3055;DHT22;1537;52.018;8.542;2023-03-12T06:27:49;1.90;89.50
3055;DHT22;1537;52.018;8.542;2023-03-12T06:31:13;2.00;89.00
3055;DHT22;1537;52.018;8.542;2023-03-12T06:34:36;2.00;89.30
3055;DHT22;1537;52.018;8.542;2023-03-12T06:38:00;2.10;89.00
3055;DHT22;1537;52.018;8.542;2023-03-12T06:41:24;2.10;89.10
3055;DHT22;1537;52.018;8.542;2023-03-12T06:44:49;2.20;88.60
3055;DHT22;1537;52.018;8.542;2023-03-12T06:48:13;2.20;88.30
3055;DHT22;1537;52.018;8.542;2023-03-12T06:51:37;2.20;88.50
3055;DHT22;1537;52.018;8.542;2023-03-12T06:55:00;2.20;89.10
3055;DHT22;1537;52.018;8.542;2023-03-12T06:58:24;2.30;88.80
3055;DHT22;1537;52.018;8.542;2023-03-12T07:01:50;2.30;88.70
3055;DHT22;1537;52.018;8.542;2023-03-12T07:05:13;2.40;88.70
3055;DHT22;1537;52.018;8.542;2023-03-12T07:08:37;2.40;88.40
3055;DHT22;1537;52.018;8.542;2023-03-12T07:12:01;2.50;88.70
3055;DHT22;1537;52.018;8.542;2023-03-12T07:15:25;2.60;88.50
3055;DHT22;1537;52.018;8.542;2023-03-12T07:18:50;2.60;87.80
3055;DHT22;1537;52.018;8.542;2023-03-12T07:22:14;2.60;88.20
3055;DHT22;1537;52.018;8.542;2023-03-12T07:25:39;2.60;88.20
3055;DHT22;1537;52.018;8.542;2023-03-12T07:29:03;2.60;87.80
3055;DHT22;1537;52.018;8.542;2023-03-12T07:32:27;2.70;87.80
3055;DHT22;1537;52.018;8.542;2023-03-12T07:35:52;2.70;87.50
3055;DHT22;1537;52.018;8.542;2023-03-12T07:39:16;2.70;87.90
3055;DHT22;1537;52.018;8.542;2023-03-12T07:42:40;2.70;87.90
3055;DHT22;1537;52.018;8.542;2023-03-12T07:46:04;2.60;88.50
3055;DHT22;1537;52.018;8.542;2023-03-12T07:49:27;2.60;88.70
3055;DHT22;1537;52.018;8.542;2023-03-12T07:52:52;2.70;89.30
3055;DHT22;1537;52.018;8.542;2023-03-12T07:56:16;2.70;88.60
3055;DHT22;1537;52.018;8.542;2023-03-12T07:59:40;2.70;89.40
3055;DHT22;1537;52.018;8.542;2023-03-12T08:03:04;2.70;89.00
3055;DHT22;1537;52.018;8.542;2023-03-12T08:06:28;2.70;89.20
3055;DHT22;1537;52.018;8.542;2023-03-12T08:09:53;2.90;89.60
3055;DHT22;1537;52.018;8.542;2023-03-12T08:13:17;3.00;88.50
3055;DHT22;1537;52.018;8.542;2023-03-12T08:16:40;3.30;88.40
3055;DHT22;1537;52.018;8.542;2023-03-12T08:20:05;3.30;88.70
3055;DHT22;1537;52.018;8.542;2023-03-12T08:23:31;3.30;88.50
3055;DHT22;1537;52.018;8.542;2023-03-12T08:26:57;3.40;87.50
3055;DHT22;1537;52.018;8.542;2023-03-12T08:30:20;3.30;88.20
3055;DHT22;1537;52.018;8.542;2023-03-12T08:33:47;3.30;86.20
3055;DHT22;1537;52.018;8.542;2023-03-12T08:37:11;3.40;86.80
3055;DHT22;1537;52.018;8.542;2023-03-12T08:40:34;3.50;86.10
3055;DHT22;1537;52.018;8.542;2023-03-12T08:43:59;3.60;86.00
3055;DHT22;1537;52.018;8.542;2023-03-12T08:47:23;3.70;85.40
3055;DHT22;1537;52.018;8.542;2023-03-12T08:50:47;3.70;85.50
3055;DHT22;1537;52.018;8.542;2023-03-12T08:54:12;3.80;86.40
3055;DHT22;1537;52.018;8.542;2023-03-12T08:57:38;3.80;87.70
3055;DHT22;1537;52.018;8.542;2023-03-12T09:01:07;3.70;89.10
3055;DHT22;1537;52.018;8.542;2023-03-12T09:04:31;3.80;90.50
3055;DHT22;1537;52.018;8.542;2023-03-12T09:07:55;3.80;90.50
3055;DHT22;1537;52.018;8.542;2023-03-12T09:11:19;3.60;91.00
3055;DHT22;1537;52.018;8.542;2023-03-12T09:14:43;3.40;92.30
3055;DHT22;1537;52.018;8.542;2023-03-12T09:18:28;3.30;95.00
3055;DHT22;1537;52.018;8.542;2023-03-12T09:21:52;3.30;96.80
3055;DHT22;1537;52.018;8.542;2023-03-12T09:25:16;3.20;98.40
3055;DHT22;1537;52.018;8.542;2023-03-12T09:28:40;3.30;99.30
3055;DHT22;1537;52.018;8.542;2023-03-12T09:32:04;3.40;99.90
3055;DHT22;1537;52.018;8.542;2023-03-12T09:35:29;3.30;99.90
3055;DHT22;1537;52.018;8.542;2023-03-12T09:38:53;3.50;99.90
3055;DHT22;1537;52.018;8.542;2023-03-12T09:42:22;3.60;99.90
3055;DHT22;1537;52.018;8.542;2023-03-12T09:45:48;3.60;99.90
3055;DHT22;1537;52.018;8.542;2023-03-12T09:49:17;3.40;99.90
3055;DHT22;1537;52.018;8.542;2023-03-12T09:52:48;3.30;99.90
3055;DHT22;1537;52.018;8.542;2023-03-12T09:56:14;3.30;99.90
3055;DHT22;1537;52.018;8.542;2023-03-12T09:59:39;3.10;99.90
3055;DHT22;1537;52.018;8.542;2023-03-12T10:03:14;3.30;99.90
3055;DHT22;1537;52.018;8.542;2023-03-12T10:06:44;3.20;99.90
3055;DHT22;1537;52.018;8.542;2023-03-12T10:10:27;3.40;99.90
3055;DHT22;1537;52.018;8.542;2023-03-12T10:14:02;3.30;99.90
3055;DHT22;1537;52.018;8.542;2023-03-12T10:17:40;3.40;99.90
3055;DHT22;1537;52.018;8.542;2023-03-12T10:21:18;3.30;99.90
3055;DHT22;1537;52.018;8.542;2023-03-12T10:24:53;3.20;99.90
3055;DHT22;1537;52.018;8.542;2023-03-12T10:28:24;2.90;99.90
3055;DHT22;1537;52.018;8.542;2023-03-12T10:31:54;2.80;99.90
3055;DHT22;1537;52.018;8.542;2023-03-12T10:35:20;2.90;99.90
3055;DHT22;1537;52.018;8.542;2023-03-12T10:38:44;3.10;99.90
3055;DHT22;1537;52.018;8.542;2023-03-12T10:42:13;3.10;99.90
3055;DHT22;1537;52.018;8.542;2023-03-12T10:45:43;3.10;99.90
3055;DHT22;1537;52.018;8.542;2023-03-12T10:49:39;3.10;99.90
3055;DHT22;1537;52.018;8.542;2023-03-12T10:53:18;2.90;99.90
3055;DHT22;1537;52.018;8.542;2023-03-12T10:56:48;2.60;99.90
3055;DHT22;1537;52.018;8.542;2023-03-12T11:00:18;2.60;99.90
3055;DHT22;1537;52.018;8.542;2023-03-12T11:03:44;2.60;99.90
3055;DHT22;1537;52.018;8.542;2023-03-12T11:07:22;2.50;99.90
3055;DHT22;1537;52.018;8.542;2023-03-12T11:10:48;2.60;99.90
3055;DHT22;1537;52.018;8.542;2023-03-12T11:14:16;2.70;99.90
3055;DHT22;1537;52.018;8.542;2023-03-12T11:17:40;2.70;99.90
3055;DHT22;1537;52.018;8.542;2023-03-12T11:21:16;2.90;99.90
3055;DHT22;1537;52.018;8.542;2023-03-12T11:24:55;2.90;99.90
3055;DHT22;1537;52.018;8.542;2023-03-12T11:28:22;3.20;99.90
3055;DHT22;1537;52.018;8.542;2023-03-12T11:31:55;3.30;99.90
3055;DHT22;1537;52.018;8.542;2023-03-12T11:35:28;3.40;99.90
3055;DHT22;1537;52.018;8.542;2023-03-12T11:39:02;3.40;99.90
3055;DHT22;1537;52.018;8.542;2023-03-12T11:42:39;3.50;99.90
3055;DHT22;1537;52.018;8.542;2023-03-12T11:46:17;3.50;99.90
3055;DHT22;1537;52.018;8.542;2023-03-12T11:49:58;3.50;99.90
3055;DHT22;1537;52.018;8.542;2023-03-12T11:53:42;3.50;99.90
3055;DHT22;1537;52.018;8.542;2023-03-12T11:57:15;3.40;99.90
3055;DHT22;1537;52.018;8.542;2023-03-12T12:00:47;3.60;99.90
3055;DHT22;1537;52.018;8.542;2023-03-12T12:08:27;3.90;99.90
3055;DHT22;1537;52.018;8.542;2023-03-12T12:12:03;3.70;99.90
3055;DHT22;1537;52.018;8.542;2023-03-12T12:15:37;3.70;99.90
3055;DHT22;1537;52.018;8.542;2023-03-12T12:19:13;3.90;99.90
3055;DHT22;1537;52.018;8.542;2023-03-12T12:22:49;3.90;99.90
3055;DHT22;1537;52.018;8.542;2023-03-12T12:26:21;4.00;99.90
3055;DHT22;1537;52.018;8.542;2023-03-12T12:30:06;4.20;99.90
3055;DHT22;1537;52.018;8.542;2023-03-12T12:33:46;4.30;99.90
3055;DHT22;1537;52.018;8.542;2023-03-12T12:37:31;4.40;99.90
3055;DHT22;1537;52.018;8.542;2023-03-12T12:41:03;4.50;99.90
3055;DHT22;1537;52.018;8.542;2023-03-12T12:44:32;4.60;99.90
3055;DHT22;1537;52.018;8.542;2023-03-12T12:48:00;4.30;99.90
3055;DHT22;1537;52.018;8.542;2023-03-12T12:51:31;4.40;99.90
3055;DHT22;1537;52.018;8.542;2023-03-12T12:55:00;4.40;99.90
3055;DHT22;1537;52.018;8.542;2023-03-12T13:02:31;4.60;99.90
3055;DHT22;1537;52.018;8.542;2023-03-12T13:05:57;4.60;99.90
3055;DHT22;1537;52.018;8.542;2023-03-12T13:09:35;4.60;99.90
3055;DHT22;1537;52.018;8.542;2023-03-12T13:13:02;4.70;99.90
3055;DHT22;1537;52.018;8.542;2023-03-12T13:16:31;4.80;99.90
3055;DHT22;1537;52.018;8.542;2023-03-12T13:19:59;5.00;99.90
3055;DHT22;1537;52.018;8.542;2023-03-12T13:23:34;5.00;99.90
3055;DHT22;1537;52.018;8.542;2023-03-12T13:27:08;5.10;99.90
3055;DHT22;1537;52.018;8.542;2023-03-12T13:30:48;5.20;99.90
3055;DHT22;1537;52.018;8.542;2023-03-12T13:34:41;5.20;99.90
3055;DHT22;1537;52.018;8.542;2023-03-12T13:38:10;5.30;99.90
3055;DHT22;1537;52.018;8.542;2023-03-12T13:41:36;5.30;99.90
3055;DHT22;1537;52.018;8.542;2023-03-12T13:45:26;5.40;99.90
3055;DHT22;1537;52.018;8.542;2023-03-12T13:48:57;5.50;99.90
3055;DHT22;1537;52.018;8.542;2023-03-12T13:52:23;5.60;99.90
3055;DHT22;1537;52.018;8.542;2023-03-12T13:55:59;5.60;99.90
3055;DHT22;1537;52.018;8.542;2023-03-12T13:59:25;5.70;99.90
3055;DHT22;1537;52.018;8.542;2023-03-12T14:02:53;5.70;99.90
3055;DHT22;1537;52.018;8.542;2023-03-12T14:06:18;5.80;99.90
3055;DHT22;1537;52.018;8.542;2023-03-12T14:09:46;5.80;99.90
3055;DHT22;1537;52.018;8.542;2023-03-12T14:13:29;5.90;99.90
3055;DHT22;1537;52.018;8.542;2023-03-12T14:16:57;6.00;99.90
3055;DHT22;1537;52.018;8.542;2023-03-12T14:20:24;6.10;99.90
3055;DHT22;1537;52.018;8.542;2023-03-12T14:23:50;6.20;99.90
3055;DHT22;1537;52.018;8.542;2023-03-12T14:27:19;6.20;99.90
3055;DHT22;1537;52.018;8.542;2023-03-12T14:30:49;6.30;99.90
3055;DHT22;1537;52.018;8.542;2023-03-12T14:34:18;6.30;99.90
3055;DHT22;1537;52.018;8.542;2023-03-12T14:37:48;6.50;99.90
3055;DHT22;1537;52.018;8.542;2023-03-12T14:41:17;6.50;99.90
3055;DHT22;1537;52.018;8.542;2023-03-12T14:44:52;6.60;99.90
3055;DHT22;1537;52.018;8.542;2023-03-12T14:48:20;6.70;99.90
3055;DHT22;1537;52.018;8.542;2023-03-12T14:51:44;6.80;99.90
3055;DHT22;1537;52.018;8.542;2023-03-12T14:55:13;6.80;99.90
3055;DHT22;1537;52.018;8.542;2023-03-12T14:58:42;6.90;99.90
3055;DHT22;1537;52.018;8.542;2023-03-12T15:02:12;7.00;99.90
3055;DHT22;1537;52.018;8.542;2023-03-12T15:05:36;7.10;99.90
3055;DHT22;1537;52.018;8.542;2023-03-12T15:09:01;7.20;99.90
3055;DHT22;1537;52.018;8.542;2023-03-12T15:12:30;7.30;99.90
3055;DHT22;1537;52.018;8.542;2023-03-12T15:15:55;7.40;99.90
3055;DHT22;1537;52.018;8.542;2023-03-12T15:19:25;7.50;99.90
3055;DHT22;1537;52.018;8.542;2023-03-12T15:22:51;7.50;99.90
3055;DHT22;1537;52.018;8.542;2023-03-12T15:26:27;7.60;99.90
3055;DHT22;1537;52.018;8.542;2023-03-12T15:29:52;7.60;99.90
3055;DHT22;1537;52.018;8.542;2023-03-12T15:33:22;7.70;99.90
3055;DHT22;1537;52.018;8.542;2023-03-12T15:36:48;7.70;99.90
3055;DHT22;1537;52.018;8.542;2023-03-12T15:40:20;7.70;99.90
3055;DHT22;1537;52.018;8.542;2023-03-12T15:43:50;7.80;99.90
3055;DHT22;1537;52.018;8.542;2023-03-12T15:47:17;7.90;99.90
3055;DHT22;1537;52.018;8.542;2023-03-12T15:50:42;8.00;99.90
3055;DHT22;1537;52.018;8.542;2023-03-12T15:54:23;8.00;99.90
3055;DHT22;1537;52.018;8.542;2023-03-12T15:57:49;8.10;99.90
3055;DHT22;1537;52.018;8.542;2023-03-12T16:01:14;8.10;99.90
3055;DHT22;1537;52.018;8.542;2023-03-12T16:04:40;8.10;99.90
3055;DHT22;1537;52.018;8.542;2023-03-12T16:08:13;8.20;99.90
3055;DHT22;1537;52.018;8.542;2023-03-12T16:11:37;8.20;99.90
3055;DHT22;1537;52.018;8.542;2023-03-12T16:15:00;8.30;99.90
3055;DHT22;1537;52.018;8.542;2023-03-12T16:18:24;8.30;99.90
3055;DHT22;1537;52.018;8.542;2023-03-12T16:21:49;8.30;99.90
3055;DHT22;1537;52.018;8.542;2023-03-12T16:25:13;8.30;99.90
3055;DHT22;1537;52.018;8.542;2023-03-12T16:28:36;8.40;99.90
3055;DHT22;1537;52.018;8.542;2023-03-12T16:32:00;8.40;99.90
3055;DHT22;1537;52.018;8.542;2023-03-12T16:35:24;8.40;99.90
3055;DHT22;1537;52.018;8.542;2023-03-12T16:38:50;8.40;99.90
3055;DHT22;1537;52.018;8.542;2023-03-12T16:42:24;8.40;99.90
3055;DHT22;1537;52.018;8.542;2023-03-12T16:45:49;8.40;99.90
3055;DHT22;1537;52.018;8.542;2023-03-12T16:49:15;8.40;99.90
3055;DHT22;1537;52.018;8.542;2023-03-12T16:52:41;8.40;99.90
3055;DHT22;1537;52.018;8.542;2023-03-12T16:56:06;8.40;99.90
3055;DHT22;1537;52.018;8.542;2023-03-12T16:59:29;8.40;99.90
3055;DHT22;1537;52.018;8.542;2023-03-12T17:02:59;8.40;99.90
3055;DHT22;1537;52.018;8.542;2023-03-12T17:06:25;8.40;99.90
3055;DHT22;1537;52.018;8.542;2023-03-12T17:09:49;8.40;99.90
3055;DHT22;1537;52.018;8.542;2023-03-12T17:13:26;8.40;99.90
3055;DHT22;1537;52.018;8.542;2023-03-12T17:16:50;8.40;99.90
3055;DHT22;1537;52.018;8.542;2023-03-12T17:20:15;8.40;99.90
3055;DHT22;1537;52.018;8.542;2023-03-12T17:23:39;8.40;99.90
3055;DHT22;1537;52.018;8.542;2023-03-12T17:27:03;8.40;99.90
3055;DHT22;1537;52.018;8.542;2023-03-12T17:30:29;8.40;99.90
3055;DHT22;1537;52.018;8.542;2023-03-12T17:33:53;8.40;99.90
3055;DHT22;1537;52.018;8.542;2023-03-12T17:37:16;8.40;99.90
3055;DHT22;1537;52.018;8.542;2023-03-12T17:40:40;8.40;99.90
3055;DHT22;1537;52.018;8.542;2023-03-12T17:44:04;8.40;99.90
3055;DHT22;1537;52.018;8.542;2023-03-12T17:47:30;8.40;99.90
3055;DHT22;1537;52.018;8.542;2023-03-12T17:50:53;8.40;99.90
3055;DHT22;1537;52.018;8.542;2023-03-12T17:54:17;8.50;99.90
3055;DHT22;1537;52.018;8.542;2023-03-12T17:57:41;8.50;99.90
3055;DHT22;1537;52.018;8.542;2023-03-12T18:01:06;8.50;99.90
3055;DHT22;1537;52.018;8.542;2023-03-12T18:04:31;8.50;99.90
3055;DHT22;1537;52.018;8.542;2023-03-12T18:07:54;8.50;99.90
3055;DHT22;1537;52.018;8.542;2023-03-12T18:11:18;8.60;99.90
3055;DHT22;1537;52.018;8.542;2023-03-12T18:14:42;8.50;99.90
3055;DHT22;1537;52.018;8.542;2023-03-12T18:18:05;8.50;99.90
3055;DHT22;1537;52.018;8.542;2023-03-12T18:21:30;8.60;99.90
3055;DHT22;1537;52.018;8.542;2023-03-12T18:24:54;8.50;99.90
3055;DHT22;1537;52.018;8.542;2023-03-12T18:28:17;8.50;99.90
3055;DHT22;1537;52.018;8.542;2023-03-12T18:31:42;8.50;99.90
3055;DHT22;1537;52.018;8.542;2023-03-12T18:35:07;8.50;99.90
3055;DHT22;1537;52.018;8.542;2023-03-12T18:38:32;8.60;99.90
3055;DHT22;1537;52.018;8.542;2023-03-12T18:41:56;8.60;99.90
3055;DHT22;1537;52.018;8.542;2023-03-12T18:45:20;8.60;99.90
3055;DHT22;1537;52.018;8.542;2023-03-12T18:48:43;8.60;99.90
3055;DHT22;1537;52.018;8.542;2023-03-12T18:52:07;8.60;99.90
3055;DHT22;1537;52.018;8.542;2023-03-12T18:55:32;8.60;99.90
3055;DHT22;1537;52.018;8.542;2023-03-12T18:58:55;8.60;99.90
3055;DHT22;1537;52.018;8.542;2023-03-12T19:02:19;8.60;99.90
3055;DHT22;1537;52.018;8.542;2023-03-12T19:05:42;8.60;99.90
3055;DHT22;1537;52.018;8.542;2023-03-12T19:09:06;8.70;99.90
3055;DHT22;1537;52.018;8.542;2023-03-12T19:12:32;8.60;99.90
3055;DHT22;1537;52.018;8.542;2023-03-12T19:16:13;8.70;99.90
3055;DHT22;1537;52.018;8.542;2023-03-12T19:19:39;8.70;99.90
3055;DHT22;1537;52.018;8.542;2023-03-12T19:23:02;8.70;99.90
3055;DHT22;1537;52.018;8.542;2023-03-12T19:26:26;8.70;99.90
3055;DHT22;1537;52.018;8.542;2023-03-12T19:29:51;8.70;99.90
3055;DHT22;1537;52.018;8.542;2023-03-12T19:33:14;8.70;99.90
3055;DHT22;1537;52.018;8.542;2023-03-12T19:36:38;8.80;99.90
3055;DHT22;1537;52.018;8.542;2023-03-12T19:40:02;8.80;99.90
3055;DHT22;1537;52.018;8.542;2023-03-12T19:43:27;8.70;99.90
3055;DHT22;1537;52.018;8.542;2023-03-12T19:46:52;8.80;99.90
3055;DHT22;1537;52.018;8.542;2023-03-12T19:50:16;8.80;99.90
3055;DHT22;1537;52.018;8.542;2023-03-12T19:53:41;8.80;99.90
3055;DHT22;1537;52.018;8.542;2023-03-12T19:57:05;8.80;99.90
3055;DHT22;1537;52.018;8.542;2023-03-12T20:00:28;8.80;99.90
3055;DHT22;1537;52.018;8.542;2023-03-12T20:03:53;8.80;99.90
3055;DHT22;1537;52.018;8.542;2023-03-12T20:07:17;8.90;99.90
3055;DHT22;1537;52.018;8.542;2023-03-12T20:10:40;8.90;99.90
3055;DHT22;1537;52.018;8.542;2023-03-12T20:14:04;8.90;99.90
3055;DHT22;1537;52.018;8.542;2023-03-12T20:17:28;8.90;99.90
3055;DHT22;1537;52.018;8.542;2023-03-12T20:20:53;9.00;99.90
3055;DHT22;1537;52.018;8.542;2023-03-12T20:24:16;9.00;99.90
3055;DHT22;1537;52.018;8.542;2023-03-12T20:27:40;9.00;99.90
3055;DHT22;1537;52.018;8.542;2023-03-12T20:31:07;9.00;99.90
3055;DHT22;1537;52.018;8.542;2023-03-12T20:34:31;9.00;99.90
3055;DHT22;1537;52.018;8.542;2023-03-12T20:37:57;9.00;99.90
3055;DHT22;1537;52.018;8.542;2023-03-12T20:41:20;9.00;99.90
3055;DHT22;1537;52.018;8.542;2023-03-12T20:44:44;8.90;99.90
3055;DHT22;1537;52.018;8.542;2023-03-12T20:48:09;9.10;99.90
3055;DHT22;1537;52.018;8.542;2023-03-12T20:51:33;9.00;99.90
3055;DHT22;1537;52.018;8.542;2023-03-12T20:54:58;9.00;99.90
3055;DHT22;1537;52.018;8.542;2023-03-12T20:58:23;9.10;99.90
3055;DHT22;1537;52.018;8.542;2023-03-12T21:01:47;9.10;99.90
3055;DHT22;1537;52.018;8.542;2023-03-12T21:05:12;9.10;99.90
3055;DHT22;1537;52.018;8.542;2023-03-12T21:08:39;9.10;99.90
3055;DHT22;1537;52.018;8.542;2023-03-12T21:12:06;9.10;99.90
3055;DHT22;1537;52.018;8.542;2023-03-12T21:15:30;9.10;99.90
3055;DHT22;1537;52.018;8.542;2023-03-12T21:18:55;9.00;99.90
3055;DHT22;1537;52.018;8.542;2023-03-12T21:22:19;9.00;99.90
3055;DHT22;1537;52.018;8.542;2023-03-12T21:25:43;9.10;99.90
3055;DHT22;1537;52.018;8.542;2023-03-12T21:29:11;9.10;99.90
3055;DHT22;1537;52.018;8.542;2023-03-12T21:32:36;9.10;99.90
3055;DHT22;1537;52.018;8.542;2023-03-12T21:36:04;9.10;99.90
3055;DHT22;1537;52.018;8.542;2023-03-12T21:39:28;9.10;99.90
3055;DHT22;1537;52.018;8.542;2023-03-12T21:42:51;9.20;99.90
3055;DHT22;1537;52.018;8.542;2023-03-12T21:46:18;9.20;99.90
3055;DHT22;1537;52.018;8.542;2023-03-12T21:49:45;9.20;99.90
3055;DHT22;1537;52.018;8.542;2023-03-12T21:53:09;9.20;99.90
3055;DHT22;1537;52.018;8.542;2023-03-12T21:56:45;9.30;99.90
3055;DHT22;1537;52.018;8.542;2023-03-12T22:00:10;9.30;99.90
3055;DHT22;1537;52.018;8.542;2023-03-12T22:03:37;9.30;99.90
3055;DHT22;1537;52.018;8.542;2023-03-12T22:07:01;9.30;99.90
3055;DHT22;1537;52.018;8.542;2023-03-12T22:10:24;9.30;99.90
3055;DHT22;1537;52.018;8.542;2023-03-12T22:13:48;9.30;99.90
3055;DHT22;1537;52.018;8.542;2023-03-12T22:17:11;9.30;99.90
3055;DHT22;1537;52.018;8.542;2023-03-12T22:20:36;9.30;99.90
3055;DHT22;1537;52.018;8.542;2023-03-12T22:24:01;9.40;99.90
3055;DHT22;1537;52.018;8.542;2023-03-12T22:27:24;9.40;99.90
3055;DHT22;1537;52.018;8.542;2023-03-12T22:30:48;9.40;99.90
3055;DHT22;1537;52.018;8.542;2023-03-12T22:34:12;9.30;99.90
3055;DHT22;1537;52.018;8.542;2023-03-12T22:37:38;9.40;99.90
3055;DHT22;1537;52.018;8.542;2023-03-12T22:41:13;9.40;99.90
3055;DHT22;1537;52.018;8.542;2023-03-12T22:44:38;9.30;99.90
3055;DHT22;1537;52.018;8.542;2023-03-12T22:48:02;9.30;99.90
3055;DHT22;1537;52.018;8.542;2023-03-12T22:51:28;9.30;99.90
3055;DHT22;1537;52.018;8.542;2023-03-12T22:54:53;9.30;99.90
3055;DHT22;1537;52.018;8.542;2023-03-12T22:58:16;9.30;99.90